Beresford, SD

6:19 PM CDT on October 25, 2014 (GMT -0500)
Northside | Change Station
CLOSE
Current Station
Personal Weather Station
Location: Lennox, SD
Elevation: 1358 ft
Nearby Weather Stations

Elev 1358 ft 43.36 °N, 96.90 °W | Updated 6 minutes ago

Clear
Clear
63.0 °F
Feels Like 63.0 °F
N
1.1
Wind Variable Wind from South

Today
High -- | Low -- °F
--% Chance of Precip.
Yesterday
High -- | Low -- °F
Precip. -- in
7:52 AM 6:28 PM
Waxing Crescent, 5% visible
Pressure 30.05 in
Visibility 10.0 miles
Clouds Clear
Dew Point 36 °F
Humidity 36%
Rainfall 0.00 in
Snow Depth Not available.
UV 0 out of 12
Pollen 1.70 out of 12
Air Quality Not available.
Flu Activity Sporadic
METAR KYKN 252315Z AUTO 07004KT 10SM CLR 18/02 A3005 RMK AO1

More Conditions Fewer Conditions

Pressure 30.05 in
Visibility 10.0 miles
Clouds Clear
Dew Point 36 °F
Humidity 36%
Rainfall 0.00 in
Snow Depth Not available.
UV 0 out of 12
Pollen 1.70 out of 12
Air Quality Not available.
Flu Activity Sporadic
METAR KYKN 252315Z AUTO 07004KT 10SM CLR 18/02 A3005 RMK AO1

More Conditions Fewer Conditions

10-Day Weather Forecast

Almanac

Astronomy

Oct. 25, 2014 Rise Set
Actual Time 7:52 AM CDT 6:28 PM CDT
Civil Twilight 7:23 AM CDT 6:57 PM CDT
Nautical Twilight 6:50 AM CDT 7:31 PM CDT
Astronomical Twilight 6:17 AM CDT 8:03 PM CDT
Moon 9:35 AM CDT 7:50 PM CDT
Length of Visible Light 11h 33m
Length of Day
10h 35m
Tomorrow will be 2m 42s shorter.
Waxing Crescent, 5% of the Moon is Illuminated
Today
Waxing Crescent
Oct 30
First Quarter
Nov 6
Full
Nov 14
Last Quarter
Nov 22
New

Today's Extremes

State Highs State Lows

Community

WunderPhotos

Upload Photos

1,765,024 photos uploaded!

Nearby

Snow Depth

Station Depth Elevation
North Rapid Creek 0 in 6130 ft
Blind Park 0 in 6890 ft

Earthquake Activity

City Distance Mag. Time & Date
No recent earthquake activity has been reported nearby.
Minimum magnitude displayed is 2.5.

Coastal Water Temperatures

Place Temperature
No Stations Reporting

Nearby Weather Stations